Time;durP1;ratioP1;P1;durP2;ratioP2;P2;SDS_P1;SDS_P2;PMS_P1;PMS_P2;Temp;Humidity;BMP_temperature;BMP_pressure;BME280_temperature;BME280_humidity;BME280_pressure;Samples;Min_cycle;Max_cycle;Signal;HPM_P1;HPM_P2
2023/04/22 00:00:13;;;;;;;;;;;7.70;99.90;;;;;;5076623;28;20549;-85
2023/04/22 00:02:40;;;;;;;;;;;7.70;99.90;;;;;;5079503;28;19928;-85
2023/04/22 00:05:08;;;;;;;;;;;7.70;99.90;;;;;;5079809;28;19939;-85
2023/04/22 00:07:35;;;;;;;;;;;7.70;99.90;;;;;;5068797;28;19974;-84
2023/04/22 00:10:02;;;;;;;;;;;7.60;99.90;;;;;;5070977;28;19958;-85
2023/04/22 00:12:29;;;;;;;;;;;7.60;99.90;;;;;;5077911;28;19928;-83
2023/04/22 00:15:01;;;;;;;;;;;7.60;99.90;;;;;;5067723;28;19932;-85
2023/04/22 00:17:28;;;;;;;;;;;7.50;99.90;;;;;;5088201;28;19956;-84
2023/04/22 00:19:55;;;;;;;;;;;7.50;99.90;;;;;;5067133;28;19932;-84
2023/04/22 00:22:22;;;;;;;;;;;7.50;99.90;;;;;;5072489;28;19971;-85
2023/04/22 00:24:49;;;;;;;;;;;7.60;99.90;;;;;;5078354;28;19931;-83
2023/04/22 00:27:20;;;;;;;;;;;7.60;99.90;;;;;;5071391;28;20337;-84
2023/04/22 00:29:47;;;;;;;;;;;7.60;99.90;;;;;;5081548;28;19924;-83
2023/04/22 00:32:15;;;;;;;;;;;7.60;99.90;;;;;;5079584;28;19928;-84
2023/04/22 00:34:42;;;;;;;;;;;7.60;99.90;;;;;;5095469;28;19932;-85
2023/04/22 00:37:09;;;;;;;;;;;7.60;99.90;;;;;;5085088;28;19936;-85
2023/04/22 00:39:38;;;;;;;;;;;7.60;99.90;;;;;;5081139;28;20394;-86
2023/04/22 00:42:06;;;;;;;;;;;7.70;99.90;;;;;;5068720;28;20153;-85
2023/04/22 00:44:32;;;;;;;;;;;7.80;99.90;;;;;;5081135;28;19939;-85
2023/04/22 00:46:59;;;;;;;;;;;7.80;99.90;;;;;;5077637;28;19924;-83
2023/04/22 00:49:28;;;;;;;;;;;7.90;99.90;;;;;;5081264;28;21263;-83
2023/04/22 00:51:55;;;;;;;;;;;7.90;99.90;;;;;;5079765;28;19959;-84
2023/04/22 00:54:22;;;;;;;;;;;7.90;99.90;;;;;;5079327;28;19924;-83
2023/04/22 00:56:49;;;;;;;;;;;7.00;99.90;;;;;;5080288;28;20022;-84
2023/04/22 00:59:16;;;;;;;;;;;7.90;99.90;;;;;;5074307;28;19931;-84
2023/04/22 01:01:43;;;;;;;;;;;7.90;99.90;;;;;;5088675;28;19932;-84
2023/04/22 01:04:12;;;;;;;;;;;7.90;99.90;;;;;;5083999;28;19936;-85
2023/04/22 01:06:42;;;;;;;;;;;7.90;99.90;;;;;;5075923;28;19960;-85
2023/04/22 01:09:09;;;;;;;;;;;8.00;99.90;;;;;;5082927;28;19935;-83
2023/04/22 01:11:36;;;;;;;;;;;8.00;99.90;;;;;;5075768;28;19924;-84
2023/04/22 01:14:03;;;;;;;;;;;8.00;99.90;;;;;;5083409;28;19936;-84
2023/04/22 01:16:32;;;;;;;;;;;8.00;99.90;;;;;;5075899;28;19924;-84
2023/04/22 01:18:59;;;;;;;;;;;8.10;99.90;;;;;;5082909;28;19976;-84
2023/04/22 01:21:26;;;;;;;;;;;8.00;99.90;;;;;;5073975;28;19928;-82
2023/04/22 01:23:55;;;;;;;;;;;8.00;99.90;;;;;;5083797;28;19970;-83
2023/04/22 01:26:22;;;;;;;;;;;8.10;99.90;;;;;;5081417;28;19933;-82
2023/04/22 01:28:49;;;;;;;;;;;8.10;99.90;;;;;;5081059;28;20368;-83
2023/04/22 01:31:16;;;;;;;;;;;8.10;99.90;;;;;;5085715;28;20337;-84
2023/04/22 01:33:44;;;;;;;;;;;8.10;99.90;;;;;;5071981;28;19933;-86
2023/04/22 01:36:11;;;;;;;;;;;8.10;99.90;;;;;;5087728;28;19935;-86
2023/04/22 01:38:38;;;;;;;;;;;8.20;99.90;;;;;;5092319;28;19928;-83
2023/04/22 01:41:07;;;;;;;;;;;8.20;99.90;;;;;;5081243;28;19932;-85
2023/04/22 01:43:35;;;;;;;;;;;8.20;99.90;;;;;;5080901;28;19932;-84
2023/04/22 01:46:03;;;;;;;;;;;8.10;99.90;;;;;;5081660;28;19924;-85
2023/04/22 01:48:30;;;;;;;;;;;8.10;99.90;;;;;;5095753;28;19920;-84
2023/04/22 01:50:57;;;;;;;;;;;8.10;99.90;;;;;;5081138;28;19966;-81
2023/04/22 01:53:24;;;;;;;;;;;8.10;99.90;;;;;;5078436;28;19932;-81
2023/04/22 01:55:52;;;;;;;;;;;8.10;99.90;;;;;;5075966;28;19935;-81
2023/04/22 01:58:21;;;;;;;;;;;8.10;99.90;;;;;;5070803;28;19928;-84
2023/04/22 02:00:48;;;;;;;;;;;8.10;99.90;;;;;;5080599;28;19940;-84
2023/04/22 02:03:14;;;;;;;;;;;8.10;99.90;;;;;;5087431;28;19944;-84
2023/04/22 02:05:41;;;;;;;;;;;8.20;99.90;;;;;;5078477;28;19939;-83
2023/04/22 02:08:08;;;;;;;;;;;8.20;99.90;;;;;;5081878;28;19924;-82
2023/04/22 02:10:36;;;;;;;;;;;8.10;99.90;;;;;;5082149;28;19993;-83
2023/04/22 02:13:03;;;;;;;;;;;8.20;99.90;;;;;;5083906;28;20570;-83
2023/04/22 02:15:31;;;;;;;;;;;8.20;99.90;;;;;;5081932;28;20034;-83
2023/04/22 02:17:58;;;;;;;;;;;8.20;99.90;;;;;;5083277;28;19929;-84
2023/04/22 02:20:25;;;;;;;;;;;8.20;99.90;;;;;;5084708;28;20255;-84
2023/04/22 02:22:52;;;;;;;;;;;8.20;99.90;;;;;;5098281;28;19943;-83
2023/04/22 02:25:20;;;;;;;;;;;8.20;99.90;;;;;;5071642;28;19963;-83
2023/04/22 02:27:46;;;;;;;;;;;8.30;99.90;;;;;;5083009;28;19924;-83
2023/04/22 02:30:14;;;;;;;;;;;8.30;99.90;;;;;;5083736;28;19924;-82
2023/04/22 02:32:42;;;;;;;;;;;8.30;99.90;;;;;;5084674;28;19932;-84
2023/04/22 02:35:10;;;;;;;;;;;8.30;99.90;;;;;;5084381;28;19924;-82
2023/04/22 02:37:37;;;;;;;;;;;8.30;99.90;;;;;;5082743;28;19943;-83
2023/04/22 02:40:04;;;;;;;;;;;8.30;99.90;;;;;;5084170;28;19928;-82
2023/04/22 02:42:31;;;;;;;;;;;8.30;99.90;;;;;;5084567;28;19933;-83
2023/04/22 02:44:58;;;;;;;;;;;8.40;99.90;;;;;;5086262;28;19929;-83
2023/04/22 02:47:25;;;;;;;;;;;8.40;99.90;;;;;;5083791;28;21195;-83
2023/04/22 02:49:53;;;;;;;;;;;8.40;99.90;;;;;;5075616;28;19928;-84
2023/04/22 02:52:20;;;;;;;;;;;8.40;99.90;;;;;;5082639;28;20469;-84
2023/04/22 02:54:47;;;;;;;;;;;8.40;99.90;;;;;;5090374;28;19943;-83
2023/04/22 02:57:14;;;;;;;;;;;8.40;99.90;;;;;;5077829;28;19980;-82
2023/04/22 02:59:41;;;;;;;;;;;8.40;99.90;;;;;;5093850;28;19964;-83
2023/04/22 03:02:10;;;;;;;;;;;8.50;99.90;;;;;;5080814;28;19932;-81
2023/04/22 03:04:59;;;;;;;;;;;8.50;99.90;;;;;;5078364;28;19932;-82
2023/04/22 03:07:27;;;;;;;;;;;8.60;99.90;;;;;;5091391;28;19927;-82
2023/04/22 03:09:55;;;;;;;;;;;8.60;99.90;;;;;;5095281;28;20324;-83
2023/04/22 03:12:25;;;;;;;;;;;8.60;99.90;;;;;;5072849;28;20463;-82
2023/04/22 03:14:52;;;;;;;;;;;8.70;99.90;;;;;;5089716;28;19939;-81
2023/04/22 03:17:21;;;;;;;;;;;8.60;99.90;;;;;;5082353;28;19925;-82
2023/04/22 03:19:49;;;;;;;;;;;8.60;99.90;;;;;;5077218;28;19924;-81
2023/04/22 03:22:17;;;;;;;;;;;8.50;99.90;;;;;;5082353;28;19924;-79
2023/04/22 03:24:46;;;;;;;;;;;8.50;99.90;;;;;;5089217;28;19936;-82
2023/04/22 03:27:16;;;;;;;;;;;8.50;99.90;;;;;;5091892;28;19992;-81
2023/04/22 03:29:44;;;;;;;;;;;8.50;99.90;;;;;;5096624;28;19935;-81
2023/04/22 03:32:12;;;;;;;;;;;8.50;99.90;;;;;;5085036;28;19932;-81
2023/04/22 03:34:39;;;;;;;;;;;8.50;99.90;;;;;;5084703;28;20397;-82
2023/04/22 03:37:09;;;;;;;;;;;8.50;99.90;;;;;;5086524;28;19928;-81
2023/04/22 03:39:37;;;;;;;;;;;8.40;99.90;;;;;;5088268;28;19928;-81
2023/04/22 03:42:05;;;;;;;;;;;8.40;99.90;;;;;;5093119;28;19948;-81
2023/04/22 03:44:33;;;;;;;;;;;8.40;99.90;;;;;;5109010;28;19935;-82
2023/04/22 03:47:01;;;;;;;;;;;8.40;99.90;;;;;;5084476;28;19943;-81
2023/04/22 03:49:32;;;;;;;;;;;8.50;99.90;;;;;;5082732;28;19928;-81
2023/04/22 03:52:00;;;;;;;;;;;8.50;99.90;;;;;;5075721;28;19967;-82
2023/04/22 03:54:27;;;;;;;;;;;8.50;99.90;;;;;;5077232;28;20026;-82
2023/04/22 03:56:57;;;;;;;;;;;8.60;99.90;;;;;;5071329;28;20379;-81
2023/04/22 03:59:25;;;;;;;;;;;8.60;99.90;;;;;;5087203;28;19924;-81
2023/04/22 04:01:53;;;;;;;;;;;8.70;99.90;;;;;;5076955;28;19924;-81
2023/04/22 04:04:23;;;;;;;;;;;8.70;99.90;;;;;;5085889;28;19974;-81
2023/04/22 04:06:55;;;;;;;;;;;8.70;99.90;;;;;;5085132;28;19927;-82
2023/04/22 04:09:22;;;;;;;;;;;8.70;99.90;;;;;;5075740;28;19928;-81
2023/04/22 04:11:48;;;;;;;;;;;8.60;99.90;;;;;;5079693;28;19928;-82
2023/04/22 04:14:17;;;;;;;;;;;8.60;99.90;;;;;;5085215;28;19928;-82
2023/04/22 04:16:48;;;;;;;;;;;8.60;99.90;;;;;;5078039;28;20030;-82
2023/04/22 04:19:26;;;;;;;;;;;8.60;99.90;;;;;;5084971;28;20392;-82
2023/04/22 04:21:53;;;;;;;;;;;8.60;99.90;;;;;;5077955;28;19931;-81
2023/04/22 04:24:21;;;;;;;;;;;8.60;99.90;;;;;;5085898;28;19924;-82
2023/04/22 04:26:50;;;;;;;;;;;8.60;99.90;;;;;;5078513;28;19935;-82
2023/04/22 04:29:23;;;;;;;;;;;8.70;99.90;;;;;;5084737;28;19931;-80
2023/04/22 04:32:00;;;;;;;;;;;8.70;99.90;;;;;;5082812;28;19930;-80
2023/04/22 04:34:28;;;;;;;;;;;8.70;99.90;;;;;;5076093;28;19924;-81
2023/04/22 04:36:56;;;;;;;;;;;8.90;99.90;;;;;;5079789;28;19925;-81
2023/04/22 04:39:31;;;;;;;;;;;8.90;99.90;;;;;;5072634;28;20337;-79
2023/04/22 04:41:59;;;;;;;;;;;8.90;99.90;;;;;;5071180;28;19924;-78
2023/04/22 04:44:31;;;;;;;;;;;8.90;99.90;;;;;;5077351;28;19924;-80
2023/04/22 04:46:58;;;;;;;;;;;8.90;99.90;;;;;;5073610;28;20388;-80
2023/04/22 04:49:29;;;;;;;;;;;8.90;99.90;;;;;;5058397;28;19974;-80
2023/04/22 04:51:58;;;;;;;;;;;8.90;99.90;;;;;;5051279;28;20458;-80
2023/04/22 04:54:26;;;;;;;;;;;8.90;99.90;;;;;;5070895;28;20579;-80
2023/04/22 04:56:53;;;;;;;;;;;9.10;99.90;;;;;;5074278;28;19925;-82
2023/04/22 04:59:21;;;;;;;;;;;8.90;99.90;;;;;;5074030;28;19912;-81
2023/04/22 05:01:49;;;;;;;;;;;9.00;99.90;;;;;;5076851;28;19935;-82
2023/04/22 05:04:16;;;;;;;;;;;9.10;99.90;;;;;;5074499;28;19928;-83
2023/04/22 05:06:44;;;;;;;;;;;9.20;99.90;;;;;;5074970;28;19928;-80
2023/04/22 05:09:13;;;;;;;;;;;9.20;99.90;;;;;;5074077;28;19924;-82
2023/04/22 05:11:41;;;;;;;;;;;9.30;99.90;;;;;;5074287;28;19929;-80
2023/04/22 05:14:16;;;;;;;;;;;9.40;99.90;;;;;;5073048;28;19925;-80
2023/04/22 05:16:45;;;;;;;;;;;9.50;99.90;;;;;;5078417;28;19939;-80
2023/04/22 05:19:15;;;;;;;;;;;9.50;99.90;;;;;;5083816;28;19924;-81
2023/04/22 05:21:43;;;;;;;;;;;9.70;99.90;;;;;;5077765;28;19950;-82
2023/04/22 05:24:10;;;;;;;;;;;9.80;99.90;;;;;;5077676;28;19947;-82
2023/04/22 05:26:37;;;;;;;;;;;9.80;99.90;;;;;;5059321;28;19933;-81
2023/04/22 05:29:10;;;;;;;;;;;9.90;99.90;;;;;;5080858;28;19928;-82
2023/04/22 05:31:37;;;;;;;;;;;10.00;99.90;;;;;;5079122;28;19932;-79
2023/04/22 05:34:13;;;;;;;;;;;10.10;99.90;;;;;;5077929;28;19968;-82
2023/04/22 05:36:54;;;;;;;;;;;10.20;99.90;;;;;;5077411;28;19934;-84
2023/04/22 05:39:21;;;;;;;;;;;10.30;99.90;;;;;;5090027;28;19919;-83
2023/04/22 05:41:49;;;;;;;;;;;10.50;99.90;;;;;;5100666;28;19978;-82
2023/04/22 05:44:19;;;;;;;;;;;10.60;99.90;;;;;;5091483;28;19925;-80
2023/04/22 05:46:47;;;;;;;;;;;10.80;99.90;;;;;;5082460;28;19913;-82
2023/04/22 05:49:16;;;;;;;;;;;10.90;99.90;;;;;;5084851;28;19959;-81
2023/04/22 05:52:04;;;;;;;;;;;11.00;99.90;;;;;;5079163;28;19950;-82
2023/04/22 05:54:43;;;;;;;;;;;11.10;99.90;;;;;;5077542;28;19936;-80
2023/04/22 05:57:11;;;;;;;;;;;11.20;99.90;;;;;;5092616;28;19929;-80
2023/04/22 05:59:38;;;;;;;;;;;11.30;99.90;;;;;;5097435;28;19924;-81
2023/04/22 06:02:08;;;;;;;;;;;11.50;99.90;;;;;;5097560;28;19994;-79
2023/04/22 06:04:35;;;;;;;;;;;11.70;99.90;;;;;;5096732;28;19934;-80
2023/04/22 06:07:02;;;;;;;;;;;11.90;99.90;;;;;;5098078;28;19932;-80
2023/04/22 06:09:30;;;;;;;;;;;12.10;99.90;;;;;;5093158;28;19935;-82
2023/04/22 06:11:57;;;;;;;;;;;12.20;99.90;;;;;;5091559;28;19981;-83
2023/04/22 06:14:24;;;;;;;;;;;12.40;99.90;;;;;;5081917;28;19930;-79
2023/04/22 06:16:52;;;;;;;;;;;12.60;99.90;;;;;;5082657;28;19928;-82
2023/04/22 06:19:20;;;;;;;;;;;12.80;99.90;;;;;;5097370;28;20003;-80
2023/04/22 06:21:47;;;;;;;;;;;13.10;99.90;;;;;;5093188;28;19959;-81
2023/04/22 06:24:14;;;;;;;;;;;13.30;99.90;;;;;;5085361;28;19928;-81
2023/04/22 06:26:44;;;;;;;;;;;13.50;99.90;;;;;;5079093;28;19952;-80
2023/04/22 06:29:11;;;;;;;;;;;13.60;99.90;;;;;;5080389;28;20391;-78
2023/04/22 06:31:40;;;;;;;;;;;14.10;99.90;;;;;;5065617;28;19920;-79
2023/04/22 06:34:06;;;;;;;;;;;15.30;99.90;;;;;;5074969;28;19927;-79
2023/04/22 06:36:38;;;;;;;;;;;17.10;99.90;;;;;;5095504;28;19928;-83
2023/04/22 06:39:06;;;;;;;;;;;18.90;99.90;;;;;;5097668;28;20056;-83
2023/04/22 06:42:01;;;;;;;;;;;20.30;99.90;;;;;;5080306;28;19924;-82
2023/04/22 06:44:48;;;;;;;;;;;21.90;99.90;;;;;;5080756;28;19943;-77
2023/04/22 06:47:41;;;;;;;;;;;23.10;99.90;;;;;;5073162;28;19925;-78
2023/04/22 06:50:13;;;;;;;;;;;24.10;99.90;;;;;;5072156;28;19932;-81
2023/04/22 06:53:01;;;;;;;;;;;24.80;99.90;;;;;;5074556;28;19933;-81
2023/04/22 06:55:28;;;;;;;;;;;25.30;99.90;;;;;;5081103;28;19928;-80
2023/04/22 06:57:57;;;;;;;;;;;25.80;99.90;;;;;;5076596;28;19928;-80
2023/04/22 07:00:26;;;;;;;;;;;26.20;99.90;;;;;;5074966;28;20028;-81
2023/04/22 07:03:00;;;;;;;;;;;26.70;99.90;;;;;;5097005;28;19924;-79
2023/04/22 07:05:28;;;;;;;;;;;27.30;99.90;;;;;;5063438;28;19931;-79
2023/04/22 07:07:56;;;;;;;;;;;27.80;99.90;;;;;;5082453;28;19924;-80
2023/04/22 07:10:25;;;;;;;;;;;28.00;99.90;;;;;;5071575;28;19959;-80
2023/04/22 07:13:12;;;;;;;;;;;28.10;99.90;;;;;;5080560;28;19940;-79
2023/04/22 07:15:39;;;;;;;;;;;28.30;99.90;;;;;;5073825;28;20383;-81
2023/04/22 07:18:06;;;;;;;;;;;28.60;99.90;;;;;;5091367;28;20248;-80
2023/04/22 07:20:33;;;;;;;;;;;29.10;99.90;;;;;;5099997;28;19925;-81
2023/04/22 07:23:00;;;;;;;;;;;29.60;99.90;;;;;;5068238;28;20028;-80
2023/04/22 07:25:27;;;;;;;;;;;29.70;99.90;;;;;;5077183;28;20590;-81
2023/04/22 07:27:56;;;;;;;;;;;30.00;99.90;;;;;;5096619;28;19978;-80
2023/04/22 07:30:25;;;;;;;;;;;30.00;99.90;;;;;;5079418;28;19928;-80
2023/04/22 07:32:52;;;;;;;;;;;29.90;99.90;;;;;;5073697;28;19970;-81
2023/04/22 07:35:19;;;;;;;;;;;29.20;99.90;;;;;;5076112;28;19971;-81
2023/04/22 07:37:46;;;;;;;;;;;28.70;99.90;;;;;;5075403;28;19924;-80
2023/04/22 07:40:14;;;;;;;;;;;28.60;99.90;;;;;;5080722;28;19932;-81
2023/04/22 07:42:40;;;;;;;;;;;28.50;99.90;;;;;;5102705;22;19946;-80
2023/04/22 07:45:08;;;;;;;;;;;28.30;99.90;;;;;;5086961;28;19939;-81
2023/04/22 07:47:36;;;;;;;;;;;28.70;99.90;;;;;;5073864;28;19928;-80
2023/04/22 07:50:02;;;;;;;;;;;28.70;99.90;;;;;;5074801;28;19939;-81
2023/04/22 07:52:29;;;;;;;;;;;28.80;99.90;;;;;;5074695;28;19955;-81
2023/04/22 07:54:56;;;;;;;;;;;29.20;99.90;;;;;;5080069;28;19939;-81
2023/04/22 07:57:23;;;;;;;;;;;29.30;99.90;;;;;;5076358;28;19932;-81
2023/04/22 07:59:50;;;;;;;;;;;29.50;99.90;;;;;;5074468;28;19973;-78
2023/04/22 08:02:16;;;;;;;;;;;29.50;99.90;;;;;;5075907;28;20301;-77
2023/04/22 08:04:45;;;;;;;;;;;29.60;99.90;;;;;;5072262;28;20417;-78
2023/04/22 08:07:11;;;;;;;;;;;29.80;99.90;;;;;;5073888;28;19932;-79
2023/04/22 08:09:38;;;;;;;;;;;29.60;99.90;;;;;;5072166;28;19976;-77
2023/04/22 08:12:05;;;;;;;;;;;29.70;99.80;;;;;;5074422;28;19928;-77
2023/04/22 08:14:31;;;;;;;;;;;29.90;99.10;;;;;;5083085;28;19932;-78
2023/04/22 08:16:58;;;;;;;;;;;29.70;95.80;;;;;;5073930;28;19936;-78
2023/04/22 08:19:25;;;;;;;;;;;29.20;97.40;;;;;;5072685;28;19932;-78
2023/04/22 08:21:53;;;;;;;;;;;28.60;96.30;;;;;;5077040;28;20390;-78
2023/04/22 08:24:20;;;;;;;;;;;28.20;97.00;;;;;;5078235;28;19934;-77
2023/04/22 08:26:47;;;;;;;;;;;28.20;98.20;;;;;;5080172;28;19928;-79
2023/04/22 08:29:14;;;;;;;;;;;28.10;98.30;;;;;;5075012;28;19936;-78
2023/04/22 08:31:41;;;;;;;;;;;28.20;98.40;;;;;;5072339;28;20264;-76
2023/04/22 08:34:08;;;;;;;;;;;28.50;99.20;;;;;;5075663;28;19928;-78
2023/04/22 08:36:35;;;;;;;;;;;29.00;95.00;;;;;;5077092;28;20050;-78
2023/04/22 08:39:03;;;;;;;;;;;29.00;95.20;;;;;;5071685;28;19940;-78
2023/04/22 08:41:30;;;;;;;;;;;28.70;95.10;;;;;;5069769;28;19933;-76
2023/04/22 08:43:57;;;;;;;;;;;28.70;94.80;;;;;;5067614;28;19932;-76
2023/04/22 08:46:25;;;;;;;;;;;28.50;93.30;;;;;;5071001;28;19963;-76
2023/04/22 08:48:53;;;;;;;;;;;27.80;94.40;;;;;;5073145;28;19928;-77
2023/04/22 08:51:21;;;;;;;;;;;27.10;94.70;;;;;;5076582;28;19932;-77
2023/04/22 08:53:47;;;;;;;;;;;26.60;95.60;;;;;;5096573;28;19929;-77
2023/04/22 08:56:16;;;;;;;;;;;26.60;95.40;;;;;;5079923;28;19924;-76
2023/04/22 08:58:42;;;;;;;;;;;26.50;95.10;;;;;;5079576;28;19924;-77
2023/04/22 09:01:09;;;;;;;;;;;26.70;94.70;;;;;;5090205;28;20007;-78
2023/04/22 09:03:39;;;;;;;;;;;26.80;94.90;;;;;;5090520;28;19935;-79
2023/04/22 09:06:06;;;;;;;;;;;27.10;94.90;;;;;;5101837;28;19934;-81
2023/04/22 09:08:33;;;;;;;;;;;27.60;95.40;;;;;;5098811;28;19928;-86
2023/04/22 09:11:00;;;;;;;;;;;27.80;95.50;;;;;;5090924;28;19928;-79
2023/04/22 09:13:29;;;;;;;;;;;27.90;94.60;;;;;;5083329;28;20249;-78
2023/04/22 09:15:55;;;;;;;;;;;27.80;94.40;;;;;;5082775;28;19928;-79
2023/04/22 09:18:22;;;;;;;;;;;27.80;93.80;;;;;;5080874;28;19932;-79
2023/04/22 09:20:49;;;;;;;;;;;27.60;94.10;;;;;;5083346;28;19927;-81
2023/04/22 09:23:16;;;;;;;;;;;27.60;93.00;;;;;;5086807;28;19932;-81
2023/04/22 09:25:45;;;;;;;;;;;27.50;94.50;;;;;;5095031;28;19932;-80
2023/04/22 09:28:12;;;;;;;;;;;27.50;94.10;;;;;;5091241;28;20506;-81
2023/04/22 09:30:40;;;;;;;;;;;27.70;94.80;;;;;;5087446;28;19933;-81
2023/04/22 09:33:07;;;;;;;;;;;28.00;94.40;;;;;;5092061;28;19912;-80
2023/04/22 09:35:34;;;;;;;;;;;28.20;93.60;;;;;;5098309;28;19928;-80
2023/04/22 09:38:02;;;;;;;;;;;28.20;93.10;;;;;;5099580;28;20243;-80
2023/04/22 09:40:29;;;;;;;;;;;27.90;92.60;;;;;;5092998;28;19929;-80
2023/04/22 09:42:58;;;;;;;;;;;27.20;92.80;;;;;;5100221;28;19934;-80
2023/04/22 09:45:25;;;;;;;;;;;26.60;93.20;;;;;;5097391;28;19924;-81
2023/04/22 09:47:54;;;;;;;;;;;26.10;92.90;;;;;;5097551;28;19959;-79
2023/04/22 09:50:21;;;;;;;;;;;25.70;93.40;;;;;;5100493;28;19965;-81
2023/04/22 09:52:53;;;;;;;;;;;25.40;93.30;;;;;;5098616;28;20369;-82
2023/04/22 09:55:21;;;;;;;;;;;25.00;93.80;;;;;;5092575;28;20141;-81
2023/04/22 09:57:50;;;;;;;;;;;24.50;93.90;;;;;;5092381;28;19927;-83
2023/04/22 10:00:18;;;;;;;;;;;24.10;94.30;;;;;;5091437;28;19924;-82
2023/04/22 10:02:45;;;;;;;;;;;24.00;94.80;;;;;;5092475;28;19973;-81
2023/04/22 10:05:13;;;;;;;;;;;24.00;94.90;;;;;;5096054;28;19928;-82
2023/04/22 10:07:39;;;;;;;;;;;23.90;95.20;;;;;;5094530;28;19931;-82
2023/04/22 10:10:08;;;;;;;;;;;23.80;95.20;;;;;;5094158;28;19951;-83
2023/04/22 10:12:34;;;;;;;;;;;23.70;95.60;;;;;;5095629;28;19924;-81
2023/04/22 10:15:01;;;;;;;;;;;23.50;95.80;;;;;;5087033;28;19943;-81
2023/04/22 10:17:29;;;;;;;;;;;23.50;95.90;;;;;;5095603;28;19936;-81
2023/04/22 10:19:56;;;;;;;;;;;23.50;96.40;;;;;;5088746;28;19935;-82
2023/04/22 10:22:24;;;;;;;;;;;23.60;96.10;;;;;;5096632;28;19939;-81
2023/04/22 10:24:54;;;;;;;;;;;23.70;96.60;;;;;;5110626;28;20426;-82
2023/04/22 10:27:21;;;;;;;;;;;23.70;96.30;;;;;;5100653;28;19928;-83
2023/04/22 10:29:48;;;;;;;;;;;23.80;96.30;;;;;;5100306;28;19935;-81
2023/04/22 10:32:24;;;;;;;;;;;23.70;96.20;;;;;;5089121;28;19927;-82
2023/04/22 10:35:06;;;;;;;;;;;23.70;96.50;;;;;;5100267;28;20018;-81
2023/04/22 10:37:34;;;;;;;;;;;23.60;96.60;;;;;;5089635;28;19988;-81
2023/04/22 10:40:09;;;;;;;;;;;23.60;97.10;;;;;;5090173;28;19932;-81
2023/04/22 10:42:36;;;;;;;;;;;23.50;96.90;;;;;;5086624;28;19931;-83
2023/04/22 10:45:04;;;;;;;;;;;23.50;97.00;;;;;;5091927;28;19933;-84
2023/04/22 10:47:31;;;;;;;;;;;23.40;96.90;;;;;;5093014;28;19928;-84
2023/04/22 10:50:15;;;;;;;;;;;23.30;97.40;;;;;;5115617;28;19935;-81
2023/04/22 10:52:45;;;;;;;;;;;23.20;97.90;;;;;;5097827;28;19970;-82
2023/04/22 10:55:12;;;;;;;;;;;23.10;97.60;;;;;;5103740;28;20122;-84
2023/04/22 10:57:40;;;;;;;;;;;23.00;97.90;;;;;;5108205;28;19931;-84
2023/04/22 11:00:21;;;;;;;;;;;22.90;97.70;;;;;;5108906;28;19928;-83
2023/04/22 11:02:51;;;;;;;;;;;22.90;98.00;;;;;;5102583;28;19950;-81
2023/04/22 11:05:19;;;;;;;;;;;23.00;98.20;;;;;;5098605;28;20007;-81
2023/04/22 11:07:48;;;;;;;;;;;23.30;97.50;;;;;;5097866;28;19932;-81
2023/04/22 11:10:30;;;;;;;;;;;23.50;98.00;;;;;;5090782;28;19947;-83
2023/04/22 11:12:57;;;;;;;;;;;23.60;97.70;;;;;;5090800;28;20451;-82
2023/04/22 11:15:25;;;;;;;;;;;23.70;97.70;;;;;;5087454;28;19932;-81
2023/04/22 11:17:52;;;;;;;;;;;23.90;97.90;;;;;;5089266;28;19954;-82
2023/04/22 11:20:24;;;;;;;;;;;24.20;96.80;;;;;;5089293;28;19928;-81
2023/04/22 11:22:53;;;;;;;;;;;24.40;96.60;;;;;;5090735;28;19928;-82
2023/04/22 11:25:21;;;;;;;;;;;24.70;96.80;;;;;;5085129;28;19951;-82
2023/04/22 11:27:47;;;;;;;;;;;24.80;96.90;;;;;;5088006;28;19969;-82
2023/04/22 11:30:15;;;;;;;;;;;25.00;96.30;;;;;;5103765;28;19932;-83
2023/04/22 11:32:43;;;;;;;;;;;25.10;96.10;;;;;;5087218;28;19951;-82
2023/04/22 11:35:11;;;;;;;;;;;25.20;95.80;;;;;;5088539;28;19931;-83
2023/04/22 11:37:43;;;;;;;;;;;25.10;95.80;;;;;;5084702;28;20214;-84
2023/04/22 11:40:12;;;;;;;;;;;25.00;95.80;;;;;;5086025;28;19925;-83
2023/04/22 11:42:39;;;;;;;;;;;25.10;95.90;;;;;;5087860;28;19933;-80
2023/04/22 11:45:07;;;;;;;;;;;25.10;95.30;;;;;;5084638;28;19928;-81
2023/04/22 11:47:35;;;;;;;;;;;25.20;95.90;;;;;;5082062;28;19943;-81
2023/04/22 11:50:05;;;;;;;;;;;25.20;95.80;;;;;;5096691;28;19916;-80
2023/04/22 11:52:46;;;;;;;;;;;25.00;96.00;;;;;;5101179;28;19916;-82
2023/04/22 11:55:15;;;;;;;;;;;24.90;96.30;;;;;;5104628;28;19924;-84
2023/04/22 11:57:42;;;;;;;;;;;24.90;95.80;;;;;;5187270;22;19932;-81
2023/04/22 12:00:16;;;;;;;;;;;24.80;95.90;;;;;;5082645;28;20008;-80
2023/04/22 12:02:44;;;;;;;;;;;24.80;96.20;;;;;;5061361;28;20304;-79
2023/04/22 12:05:12;;;;;;;;;;;24.80;96.10;;;;;;5055155;28;20392;-80
2023/04/22 12:07:42;;;;;;;;;;;24.80;96.40;;;;;;5051916;28;19977;-79
2023/04/22 12:10:10;;;;;;;;;;;24.70;96.10;;;;;;5054420;28;20554;-79
2023/04/22 12:12:40;;;;;;;;;;;24.60;96.30;;;;;;5068065;28;19967;-79
2023/04/22 12:15:09;;;;;;;;;;;24.40;96.00;;;;;;5075676;28;19924;-80
2023/04/22 12:17:36;;;;;;;;;;;24.40;96.60;;;;;;5056526;28;19984;-82
2023/04/22 12:20:03;;;;;;;;;;;24.50;96.70;;;;;;5061763;28;20043;-85
2023/04/22 12:22:32;;;;;;;;;;;24.60;96.70;;;;;;5053961;28;20001;-85
2023/04/22 12:24:59;;;;;;;;;;;24.70;97.00;;;;;;5051785;28;19929;-85
2023/04/22 12:27:26;;;;;;;;;;;24.80;96.60;;;;;;5053757;28;19929;-84
2023/04/22 12:29:55;;;;;;;;;;;24.80;96.50;;;;;;5045166;28;19974;-84
2023/04/22 12:32:25;;;;;;;;;;;24.80;96.40;;;;;;5058499;28;19963;-84
2023/04/22 12:34:51;;;;;;;;;;;25.20;96.60;;;;;;5056512;28;20383;-84
2023/04/22 12:37:19;;;;;;;;;;;25.50;96.50;;;;;;5074157;28;20100;-83
2023/04/22 12:39:46;;;;;;;;;;;25.90;96.40;;;;;;5053674;28;19928;-82
2023/04/22 12:42:13;;;;;;;;;;;26.20;95.50;;;;;;5056013;28;19937;-83
2023/04/22 12:44:40;;;;;;;;;;;26.00;95.50;;;;;;5076122;28;20380;-83
2023/04/22 12:47:09;;;;;;;;;;;26.00;95.80;;;;;;5078120;28;19928;-83
2023/04/22 12:49:38;;;;;;;;;;;26.00;95.70;;;;;;5053330;28;19936;-83
2023/04/22 12:52:05;;;;;;;;;;;25.90;95.70;;;;;;5055694;28;19924;-82
2023/04/22 12:54:32;;;;;;;;;;;25.60;95.30;;;;;;5057624;28;19948;-83
2023/04/22 12:57:00;;;;;;;;;;;25.40;95.70;;;;;;5064523;28;19928;-84
2023/04/22 12:59:27;;;;;;;;;;;25.20;96.30;;;;;;5063518;28;19971;-83
2023/04/22 13:01:54;;;;;;;;;;;25.30;96.50;;;;;;5078939;28;20443;-82
2023/04/22 13:04:23;;;;;;;;;;;25.40;96.30;;;;;;5059908;28;19940;-83
2023/04/22 13:06:55;;;;;;;;;;;25.30;95.80;;;;;;5061963;28;20007;-82
2023/04/22 13:09:23;;;;;;;;;;;25.20;96.40;;;;;;5048524;28;19925;-83
2023/04/22 13:11:50;;;;;;;;;;;25.30;96.60;;;;;;5069363;28;19960;-84
2023/04/22 13:14:17;;;;;;;;;;;25.10;96.30;;;;;;5075343;28;19919;-83
2023/04/22 13:16:44;;;;;;;;;;;24.80;96.40;;;;;;5060684;28;19970;-83
2023/04/22 13:19:12;;;;;;;;;;;24.70;96.80;;;;;;5060248;28;19929;-83
2023/04/22 13:21:41;;;;;;;;;;;24.60;96.90;;;;;;5076983;28;19937;-81
2023/04/22 13:24:09;;;;;;;;;;;24.60;97.40;;;;;;5061952;28;19928;-83
2023/04/22 13:26:38;;;;;;;;;;;24.50;97.00;;;;;;5060890;28;19955;-85
2023/04/22 13:29:12;;;;;;;;;;;24.30;97.00;;;;;;5079774;28;19939;-81
2023/04/22 13:31:39;;;;;;;;;;;23.90;97.00;;;;;;5076964;28;19935;-81
2023/04/22 13:34:08;;;;;;;;;;;23.40;97.30;;;;;;5055257;28;19932;-81
2023/04/22 13:36:36;;;;;;;;;;;22.90;97.80;;;;;;5072612;28;20443;-81
2023/04/22 13:39:07;;;;;;;;;;;22.60;98.50;;;;;;5075019;28;20530;-81
2023/04/22 13:41:34;;;;;;;;;;;22.40;99.90;;;;;;5058449;28;19928;-80
2023/04/22 13:44:03;;;;;;;;;;;22.20;99.90;;;;;;5062034;28;19939;-80
2023/04/22 13:46:30;;;;;;;;;;;22.00;99.90;;;;;;5069100;28;19981;-81
2023/04/22 13:48:57;;;;;;;;;;;21.90;99.90;;;;;;5061408;28;19966;-81
2023/04/22 13:51:26;;;;;;;;;;;22.00;99.90;;;;;;5047540;28;19977;-82
2023/04/22 13:53:57;;;;;;;;;;;22.00;99.90;;;;;;5079764;28;19931;-80
2023/04/22 13:56:31;;;;;;;;;;;22.10;99.90;;;;;;5060113;28;20098;-82
2023/04/22 13:58:58;;;;;;;;;;;22.10;99.90;;;;;;5055408;28;20303;-82
2023/04/22 14:01:26;;;;;;;;;;;22.20;99.90;;;;;;5050476;28;19928;-79
2023/04/22 14:04:02;;;;;;;;;;;22.10;99.90;;;;;;5042889;28;19982;-84
2023/04/22 14:06:31;;;;;;;;;;;22.00;99.90;;;;;;5064079;28;19924;-80
2023/04/22 14:08:59;;;;;;;;;;;21.80;99.90;;;;;;5056744;28;19928;-80
2023/04/22 14:11:27;;;;;;;;;;;21.60;99.90;;;;;;5084808;28;20930;-80
2023/04/22 14:13:55;;;;;;;;;;;21.60;99.90;;;;;;5067684;28;19932;-80
2023/04/22 14:16:22;;;;;;;;;;;21.60;99.90;;;;;;5052941;28;19940;-80
2023/04/22 14:18:50;;;;;;;;;;;21.50;99.90;;;;;;5053073;28;19928;-79
2023/04/22 14:21:18;;;;;;;;;;;21.50;99.90;;;;;;5038748;28;19935;-80
2023/04/22 14:23:44;;;;;;;;;;;21.20;99.90;;;;;;5080735;28;20031;-80
2023/04/22 14:26:12;;;;;;;;;;;20.90;99.90;;;;;;5070521;28;19924;-80
2023/04/22 14:28:40;;;;;;;;;;;20.60;99.90;;;;;;5071517;28;19935;-80